Terminal Aerodrome Forecast
Issued by NWS Charleston, WV

Current Version | Previous Version | Graphics & Text | Print | Product List | Glossary On
Versions: 1 2 3 4 5 6 7 8 9 10 11 12 13 14 15 16 17 18 19 20 21 22
000
FTUS41 KRLX 012100 AAA
TAFEKN
TAF AMD
KEKN 012130Z 0122/0218 33010KT P6SM SCT090
     FM020000 VRB03KT P6SM FEW090
     FM020600 00000KT 4SM BR SCT030
     FM021400 00000KT P6SM SCT250
     FM021700 33005KT P6SM SCT045=

USA.gov is the U.S. government's official web portal to all federal, state and local government web resources and services.